Mason City Municipal Airport
Tuesday 1:53 PM
Weather Sunny
VFR
Temperature 84°
Dew Point 73°
Feels Like 90°
Relative Humidity 70
%
Visibility 10
mi
Pressure 1008.1
mb
Wind Direction S
Wind Speed 28
mph
Last Hour Precip 0.00
"
KMCW 181853Z AUTO 18024G35KT 10SM CLR 29/23 A2977 RMK AO2 PK WND 17038/1833 SLP066 T02890228

Terminal Aerodrome Forecast (TAF)

Beginning Flight Rule Present Weather Sky Cover Ceiling Wind Visibility Wind Shear
6/18/24 12:36 PM
VFR
VCTS SCT 2500 BKN 3000OVC 4000 4000
ft
SSW (210) 24G41 >6
sm
1818/1918 21021G36KT P6SM VCTS SCT025 BKN030CB OVC040
6/18/24 7:00 PM
VFR
-SHRA, BR, VCTS BKN 3000 3000
ft
SSW (200) 20G32 6
sm
FM190000 20017G28KT 6SM -SHRA BR VCTS BKN030CB
6/19/24 4:00 AM
MVFR
-SHRA, VCTS OVC 2500 2500
ft
W (280) 9 >6
sm
FM190900 28008KT P6SM -SHRA VCTS OVC025CB
6/19/24 5:00 AM
MVFR
-SHRA, VCTS OVC 1900 1900
ft
WNW (300) 9 >6
sm
FM191000 30008KT P6SM -SHRA VCTS OVC019CB

Recent Observations

Time Present Weather Temp DP Feels RH% Vsby Pressure Ceiling Direction Speed Gust 1h Precip
1:53PM
VFR
84° 73° 90° 70
%
10
mi
1008.1
mb
None S 28
mph
40
mph
0.00"
KMCW 181853Z AUTO 18024G35KT 10SM CLR 29/23 A2977 RMK AO2 PK WND 17038/1833 SLP066 T02890228
12:53PM
VFR
80° 71° 83° 74
%
10
mi
1008.5
mb
4300
ft
S 20
mph
37
mph
Trace
KMCW 181753Z AUTO 19017G32KT 10SM FEW030 SCT035 BKN043 27/22 A2978 RMK AO2 PK WND 20041/1706 RAB31E40 TSB25E51 SLP070 P0000 60000 T02670217 10278 20244 51011
12:31PM
VFR
-TSRA 79° 70° 79° 74
%
10
mi
1008.5
mb
4500
ft
S 23
mph
36
mph
Trace
KMCW 181731Z AUTO 19020G31KT 10SM -TSRA FEW030 SCT036 OVC045 26/21 A2978 RMK AO2 PK WND 20041/1706 LTG DSNT S RAB31 TSB25 P0000 T02610211
11:53AM
VFR
80° 70° 83° 72
%
10
mi
1008.5
mb
3300
ft
SSW 24
mph
38
mph
0.00"
KMCW 181653Z AUTO 20021G33KT 10SM BKN033 OVC041 27/21 A2978 RMK AO2 PK WND 21033/1652 LTG DSNT SW SLP069 T02670211
10:53AM
VFR
82° 71° 86° 69
%
10
mi
1007.8
mb
3000
ft
SSW 24
mph
41
mph
0.00"
KMCW 181553Z AUTO 20021G36KT 10SM BKN030 OVC065 28/22 A2976 RMK AO2 PK WND 17039/1521 LTG DSNT W SLP062 T02780217
10:29AM
MVFR
81° 72° 85° 74
%
10
mi
1007.5
mb
2700
ft
S 28
mph
45
mph
0.00"
KMCW 181529Z AUTO 18024G39KT 10SM BKN027 27/22 A2975 RMK AO2 PK WND 17039/1521 T02720222
9:53AM
VFR
81° 72° 85° 74
%
10
mi
1007.1
mb
None S 24
mph
41
mph
0.00"
KMCW 181453Z AUTO 19021G36KT 10SM FEW025 27/22 A2974 RMK AO2 PK WND 18036/1447 SLP056 T02720222 58001
9:36AM
VFR
81° 72° 85° 74
%
10
mi
1007.1
mb
None S 23
mph
37
mph
0.00"
KMCW 181436Z AUTO 18020G32KT 10SM SCT027 SCT032 27/22 A2974 RMK AO2 PK WND 18034/1414 T02720222
8:53AM
MVFR
78° 71° 78° 79
%
10
mi
1007.8
mb
2500
ft
S 28
mph
41
mph
0.00"
KMCW 181353Z AUTO 18024G36KT 10SM BKN025 OVC033 26/22 A2976 RMK AO2 PK WND 18036/1353 SLP061 T02560217
8:27AM
VFR
78° 71° 78° 79
%
10
mi
1007.5
mb
3300
ft
S 22
mph
40
mph
0.00"
KMCW 181327Z AUTO 17019G35KT 10SM SCT023 OVC033 26/22 A2975 RMK AO2 PK WND 16035/1320 T02560217
8:16AM
MVFR
78° 71° 78° 79
%
10
mi
1007.5
mb
2400
ft
S 24
mph
37
mph
0.00"
KMCW 181316Z AUTO 17021G32KT 10SM BKN024 OVC031 26/22 A2975 RMK AO2 PK WND 18032/1256 T02560217
7:53AM
VFR
77° 71° 77° 82
%
10
mi
1007.5
mb
3100
ft
S 22
mph
36
mph
0.00"
KMCW 181253Z AUTO 17019G31KT 10SM FEW022 OVC031 25/22 A2975 RMK AO2 PK WND 18031/1252 SLP059 T02500217
6:53AM
VFR
76° 70° 76° 82
%
10
mi
1007.5
mb
3300
ft
SSE 23
mph
35
mph
0.00"
KMCW 181153Z AUTO 16020G30KT 10SM BKN033 24/21 A2975 RMK AO2 PK WND 17030/1147 SLP058 70009 T02440211 10244 20228 51012
5:53AM
VFR
75° 70° 75° 84
%
10
mi
1007.1
mb
None S 20
mph
28
mph
0.00"
KMCW 181053Z AUTO 18017G24KT 10SM CLR 24/21 A2974 RMK AO2 PK WND 16027/1002 SLP058 T02390211
4:53AM
VFR
76° 70° 76° 82
%
10
mi
1006.8
mb
None S 16
mph
31
mph
0.00"
KMCW 180953Z AUTO 17014G27KT 10SM CLR 24/21 A2973 RMK AO2 PK WND 17029/0920 SLP051 T02440211
3:53AM
VFR
76° 69° 76° 79
%
10
mi
1006.1
mb
None SSE 21
mph
30
mph
0.00"
KMCW 180853Z AUTO 16018G26KT 10SM CLR 24/21 A2971 RMK AO2 PK WND 17026/0844 SLP045 T02440206 56021
2:53AM
VFR
75° 68° 75° 79
%
10
mi
1006.4
mb
None SSE 16
mph
25
mph
0.00"
KMCW 180753Z AUTO 16014G22KT 10SM CLR 24/20 A2972 RMK AO2 SLP050 T02390200
1:53AM
VFR
73° 67° 73° 81
%
10
mi
1007.5
mb
None SSE 12
mph
0.00"
KMCW 180653Z AUTO 16010KT 10SM CLR 23/19 A2975 RMK AO2 SLP062 T02280194
12:53AM
VFR
74° 67° 74° 79
%
10
mi
1008.1
mb
None SSE 10
mph
0.00"
KMCW 180553Z AUTO 16009KT 10SM CLR 23/19 A2977 RMK AO2 SLP068 T02330194 10278 20233 402890172 58001
11:53PM
VFR
76° 67° 76° 74
%
10
mi
1008.8
mb
None SE 12
mph
0.00"
KMCW 180453Z AUTO 14010KT 10SM CLR 24/19 A2979 RMK AO2 SLP074 T02440194
Click here to show this page without METARs/TAFs included